Weather at Frederikssund Syd Flyveplads

Public forecast

Using degrees Celsius for public forecast. Weather courtesy of forecast.io.

Closest aviation weather report (METAR) to Frederikssund Syd Flyveplads

Closest report is Copenhagen Roskilde Airport, 13.9 nm (25.7 km) S.

2024/05/30 09:20 (retrieved 24 minutes ago)

EKRK 300920Z AUTO 13009KT 9999 SCT008/// BKN065/// BKN096/// 16/14 Q1007

Closest aviation forecast (TAF) to Frederikssund Syd Flyveplads

Closest forecast is Copenhagen Kastrup Airport, 22.7 nm (42.1 km) ESE.

2024/05/30 06:30 (retrieved 3 hours ago)

TAF EKCH 300508Z 3006/3106 13012KT 9999 FEW020 BKN040 TEMPO 3006/3007 4000 SHRA BR BKN012 BKN020CB TEMPO 3007/3009 BKN012 FEW020CB TEMPO 3009/3024 FEW020CB TEMPO 3100/3106 BKN008 SCT020CB